sensor_id;sensor_type;location;lat;lon;timestamp;pressure;altitude;pressure_sealevel;temperature;humidity
45323;BME280;31382;50.200;8.674;2023-02-13T00:01:07;102502.03;;;10.88;66.33
45323;BME280;31382;50.200;8.674;2023-02-13T00:06:09;102503.38;;;10.94;66.34
45323;BME280;31382;50.200;8.674;2023-02-13T00:11:10;102492.72;;;10.93;66.13
45323;BME280;31382;50.200;8.674;2023-02-13T00:16:12;102495.16;;;10.96;65.89
45323;BME280;31382;50.200;8.674;2023-02-13T00:21:13;102492.34;;;10.97;66.13
45323;BME280;31382;50.200;8.674;2023-02-13T00:26:16;102485.25;;;10.96;66.18
45323;BME280;31382;50.200;8.674;2023-02-13T00:31:19;102483.41;;;10.97;66.05
45323;BME280;31382;50.200;8.674;2023-02-13T00:36:22;102479.00;;;10.96;66.17
45323;BME280;31382;50.200;8.674;2023-02-13T00:41:24;102485.50;;;10.93;65.78
45323;BME280;31382;50.200;8.674;2023-02-13T00:46:25;102479.38;;;10.91;65.83
45323;BME280;31382;50.200;8.674;2023-02-13T00:51:27;102480.22;;;10.91;65.67
45323;BME280;31382;50.200;8.674;2023-02-13T00:56:28;102478.44;;;10.92;65.67
45323;BME280;31382;50.200;8.674;2023-02-13T01:01:29;102479.38;;;10.91;65.86
45323;BME280;31382;50.200;8.674;2023-02-13T01:06:31;102475.72;;;10.92;65.58
45323;BME280;31382;50.200;8.674;2023-02-13T01:11:32;102480.50;;;10.88;65.86
45323;BME280;31382;50.200;8.674;2023-02-13T01:16:34;102480.50;;;10.88;65.75
45323;BME280;31382;50.200;8.674;2023-02-13T01:21:35;102472.66;;;10.85;65.69
45323;BME280;31382;50.200;8.674;2023-02-13T01:26:37;102478.91;;;10.86;65.40
45323;BME280;31382;50.200;8.674;2023-02-13T01:31:38;102480.41;;;10.79;65.85
45323;BME280;31382;50.200;8.674;2023-02-13T01:36:40;102477.72;;;10.79;65.53
45323;BME280;31382;50.200;8.674;2023-02-13T01:41:41;102474.16;;;10.78;65.61
45323;BME280;31382;50.200;8.674;2023-02-13T01:46:43;102471.31;;;10.80;65.21
45323;BME280;31382;50.200;8.674;2023-02-13T01:51:46;102458.75;;;10.80;65.32
45323;BME280;31382;50.200;8.674;2023-02-13T01:56:53;102462.66;;;10.76;65.34
45323;BME280;31382;50.200;8.674;2023-02-13T02:01:56;102456.41;;;10.76;65.22
45323;BME280;31382;50.200;8.674;2023-02-13T02:07:16;102454.72;;;10.75;65.22
45323;BME280;31382;50.200;8.674;2023-02-13T02:17:29;102458.25;;;10.75;65.28
45323;BME280;31382;50.200;8.674;2023-02-13T02:28:20;102442.75;;;10.56;65.21
45323;BME280;31382;50.200;8.674;2023-02-13T02:44:14;102452.50;;;10.01;64.98
45323;BME280;31382;50.200;8.674;2023-02-13T02:49:18;102452.94;;;9.83;65.25
45323;BME280;31382;50.200;8.674;2023-02-13T02:54:45;102452.91;;;9.61;65.52
45323;BME280;31382;50.200;8.674;2023-02-13T03:00:09;102458.81;;;9.42;65.78
45323;BME280;31382;50.200;8.674;2023-02-13T03:05:31;102454.38;;;9.29;65.78
45323;BME280;31382;50.200;8.674;2023-02-13T03:10:53;102455.66;;;9.12;66.21
45323;BME280;31382;50.200;8.674;2023-02-13T03:16:18;102456.69;;;8.99;66.12
45323;BME280;31382;50.200;8.674;2023-02-13T03:21:51;102455.03;;;8.85;66.04
45323;BME280;31382;50.200;8.674;2023-02-13T03:27:32;102459.91;;;8.67;66.51
45323;BME280;31382;50.200;8.674;2023-02-13T03:43:55;102464.13;;;8.20;66.64
45323;BME280;31382;50.200;8.674;2023-02-13T03:49:02;102467.53;;;8.09;66.69
45323;BME280;31382;50.200;8.674;2023-02-13T03:54:43;102471.28;;;7.93;67.25
45323;BME280;31382;50.200;8.674;2023-02-13T04:00:10;102464.53;;;7.75;67.18
45323;BME280;31382;50.200;8.674;2023-02-13T04:05:16;102470.06;;;7.59;67.18
45323;BME280;31382;50.200;8.674;2023-02-13T04:10:22;102477.22;;;7.46;67.50
45323;BME280;31382;50.200;8.674;2023-02-13T04:15:30;102476.13;;;7.35;66.98
45323;BME280;31382;50.200;8.674;2023-02-13T04:20:33;102469.66;;;7.25;67.62
45323;BME280;31382;50.200;8.674;2023-02-13T04:25:38;102474.09;;;7.12;67.59
45323;BME280;31382;50.200;8.674;2023-02-13T04:30:41;102474.81;;;7.01;67.03
45323;BME280;31382;50.200;8.674;2023-02-13T04:35:43;102484.09;;;6.81;68.31
45323;BME280;31382;50.200;8.674;2023-02-13T04:40:46;102485.75;;;6.69;68.33
45323;BME280;31382;50.200;8.674;2023-02-13T04:45:48;102481.69;;;6.64;67.99
45323;BME280;31382;50.200;8.674;2023-02-13T04:50:50;102473.25;;;6.55;67.97
45323;BME280;31382;50.200;8.674;2023-02-13T04:55:51;102468.63;;;6.45;68.30
45323;BME280;31382;50.200;8.674;2023-02-13T05:00:53;102477.09;;;6.37;68.07
45323;BME280;31382;50.200;8.674;2023-02-13T05:05:55;102475.88;;;6.28;68.13
45323;BME280;31382;50.200;8.674;2023-02-13T05:10:57;102481.78;;;6.19;68.63
45323;BME280;31382;50.200;8.674;2023-02-13T05:16:00;102481.31;;;6.12;68.66
45323;BME280;31382;50.200;8.674;2023-02-13T05:21:03;102481.69;;;6.06;69.13
45323;BME280;31382;50.200;8.674;2023-02-13T05:26:23;102484.72;;;6.00;68.15
45323;BME280;31382;50.200;8.674;2023-02-13T05:31:25;102487.66;;;5.95;68.35
45323;BME280;31382;50.200;8.674;2023-02-13T05:36:27;102488.00;;;5.89;69.06
45323;BME280;31382;50.200;8.674;2023-02-13T05:41:31;102482.00;;;5.86;69.08
45323;BME280;31382;50.200;8.674;2023-02-13T05:46:33;102477.78;;;5.82;68.87
45323;BME280;31382;50.200;8.674;2023-02-13T05:51:35;102486.09;;;5.77;68.52
45323;BME280;31382;50.200;8.674;2023-02-13T05:56:37;102493.84;;;5.66;68.65
45323;BME280;31382;50.200;8.674;2023-02-13T06:01:38;102482.50;;;5.62;69.12
45323;BME280;31382;50.200;8.674;2023-02-13T06:06:40;102485.38;;;5.59;69.10
45323;BME280;31382;50.200;8.674;2023-02-13T06:11:42;102484.94;;;5.51;68.72
45323;BME280;31382;50.200;8.674;2023-02-13T06:16:45;102477.91;;;5.50;68.57
45323;BME280;31382;50.200;8.674;2023-02-13T06:21:48;102486.25;;;5.44;69.16
45323;BME280;31382;50.200;8.674;2023-02-13T06:26:49;102483.97;;;5.38;68.95
45323;BME280;31382;50.200;8.674;2023-02-13T06:31:51;102479.91;;;5.30;69.17
45323;BME280;31382;50.200;8.674;2023-02-13T06:36:52;102478.75;;;5.20;68.91
45323;BME280;31382;50.200;8.674;2023-02-13T06:41:54;102491.22;;;5.20;68.69
45323;BME280;31382;50.200;8.674;2023-02-13T06:46:58;102477.78;;;5.21;69.20
45323;BME280;31382;50.200;8.674;2023-02-13T06:52:02;102487.78;;;5.18;68.79
45323;BME280;31382;50.200;8.674;2023-02-13T06:57:04;102490.44;;;5.18;68.92
45323;BME280;31382;50.200;8.674;2023-02-13T07:02:09;102495.09;;;5.14;69.00
45323;BME280;31382;50.200;8.674;2023-02-13T07:07:11;102505.75;;;5.14;68.66
45323;BME280;31382;50.200;8.674;2023-02-13T07:12:13;102507.47;;;5.15;68.93
45323;BME280;31382;50.200;8.674;2023-02-13T07:17:14;102504.72;;;5.16;68.71
45323;BME280;31382;50.200;8.674;2023-02-13T07:22:16;102501.88;;;5.20;68.83
45323;BME280;31382;50.200;8.674;2023-02-13T07:27:17;102506.78;;;5.27;68.76
45323;BME280;31382;50.200;8.674;2023-02-13T07:32:19;102499.44;;;5.31;69.08
45323;BME280;31382;50.200;8.674;2023-02-13T07:37:20;102502.53;;;5.39;68.79
45323;BME280;31382;50.200;8.674;2023-02-13T07:42:21;102499.88;;;5.39;69.35
45323;BME280;31382;50.200;8.674;2023-02-13T07:47:23;102516.00;;;5.52;69.34
45323;BME280;31382;50.200;8.674;2023-02-13T07:52:24;102519.84;;;5.62;69.59
45323;BME280;31382;50.200;8.674;2023-02-13T07:57:26;102514.75;;;5.73;69.05
45323;BME280;31382;50.200;8.674;2023-02-13T08:02:27;102519.28;;;5.87;69.58
45323;BME280;31382;50.200;8.674;2023-02-13T08:07:28;102517.88;;;5.96;69.23
45323;BME280;31382;50.200;8.674;2023-02-13T08:12:31;102513.16;;;6.15;69.64
45323;BME280;31382;50.200;8.674;2023-02-13T08:17:33;102518.41;;;6.31;69.20
45323;BME280;31382;50.200;8.674;2023-02-13T08:22:38;102511.44;;;6.43;69.75
45323;BME280;31382;50.200;8.674;2023-02-13T08:27:39;102530.72;;;6.63;69.31
45323;BME280;31382;50.200;8.674;2023-02-13T08:32:41;102525.16;;;6.80;69.31
45323;BME280;31382;50.200;8.674;2023-02-13T08:37:54;102520.56;;;6.97;69.10
45323;BME280;31382;50.200;8.674;2023-02-13T08:43:03;102528.56;;;7.11;70.50
45323;BME280;31382;50.200;8.674;2023-02-13T08:48:05;102519.06;;;7.20;70.37
45323;BME280;31382;50.200;8.674;2023-02-13T08:53:07;102519.78;;;7.36;69.91
45323;BME280;31382;50.200;8.674;2023-02-13T08:58:09;102525.72;;;7.54;70.64
45323;BME280;31382;50.200;8.674;2023-02-13T09:03:10;102522.25;;;7.66;70.20
45323;BME280;31382;50.200;8.674;2023-02-13T09:08:12;102520.22;;;7.83;69.88
45323;BME280;31382;50.200;8.674;2023-02-13T09:13:13;102530.66;;;8.00;70.16
45323;BME280;31382;50.200;8.674;2023-02-13T09:18:15;102521.56;;;8.16;70.03
45323;BME280;31382;50.200;8.674;2023-02-13T09:23:16;102517.94;;;8.29;70.40
45323;BME280;31382;50.200;8.674;2023-02-13T09:28:18;102513.00;;;8.49;70.08
45323;BME280;31382;50.200;8.674;2023-02-13T09:33:19;102517.59;;;8.60;69.71
45323;BME280;31382;50.200;8.674;2023-02-13T09:38:20;102504.06;;;8.74;69.10
45323;BME280;31382;50.200;8.674;2023-02-13T09:48:56;102509.91;;;8.92;68.89
45323;BME280;31382;50.200;8.674;2023-02-13T09:54:02;102518.03;;;9.03;69.12
45323;BME280;31382;50.200;8.674;2023-02-13T09:59:32;102517.78;;;9.19;68.83
45323;BME280;31382;50.200;8.674;2023-02-13T10:05:01;102514.41;;;9.28;68.68
45323;BME280;31382;50.200;8.674;2023-02-13T10:10:23;102514.22;;;9.43;68.34
45323;BME280;31382;50.200;8.674;2023-02-13T10:15:36;102512.09;;;9.59;68.16
45323;BME280;31382;50.200;8.674;2023-02-13T10:20:44;102513.25;;;9.68;67.63
45323;BME280;31382;50.200;8.674;2023-02-13T10:25:53;102514.72;;;9.83;67.29
45323;BME280;31382;50.200;8.674;2023-02-13T10:31:02;102516.84;;;9.91;66.98
45323;BME280;31382;50.200;8.674;2023-02-13T10:41:22;102510.41;;;10.16;66.49
45323;BME280;31382;50.200;8.674;2023-02-13T10:46:36;102498.13;;;10.25;66.08
45323;BME280;31382;50.200;8.674;2023-02-13T10:51:50;102502.06;;;10.43;65.76
45323;BME280;31382;50.200;8.674;2023-02-13T10:57:19;102491.31;;;10.55;65.16
45323;BME280;31382;50.200;8.674;2023-02-13T11:02:28;102487.84;;;10.75;65.02
45323;BME280;31382;50.200;8.674;2023-02-13T11:07:30;102476.09;;;10.87;65.02
45323;BME280;31382;50.200;8.674;2023-02-13T11:12:33;102468.75;;;10.89;64.66
45323;BME280;31382;50.200;8.674;2023-02-13T11:17:36;102465.53;;;11.07;64.22
45323;BME280;31382;50.200;8.674;2023-02-13T11:22:41;102450.59;;;11.14;63.87
45323;BME280;31382;50.200;8.674;2023-02-13T11:27:43;102438.38;;;11.31;63.53
45323;BME280;31382;50.200;8.674;2023-02-13T11:32:57;102444.56;;;11.43;62.85
45323;BME280;31382;50.200;8.674;2023-02-13T11:43:27;102425.22;;;11.70;62.41
45323;BME280;31382;50.200;8.674;2023-02-13T11:48:29;102418.22;;;11.88;61.50
45323;BME280;31382;50.200;8.674;2023-02-13T11:53:35;102424.56;;;11.99;61.16
45323;BME280;31382;50.200;8.674;2023-02-13T11:58:38;102421.19;;;12.06;60.64
45323;BME280;31382;50.200;8.674;2023-02-13T12:03:40;102425.94;;;12.24;59.82
45323;BME280;31382;50.200;8.674;2023-02-13T12:08:46;102420.72;;;12.22;59.64
45323;BME280;31382;50.200;8.674;2023-02-13T12:13:49;102425.84;;;12.35;59.15
45323;BME280;31382;50.200;8.674;2023-02-13T12:18:55;102418.47;;;12.37;59.34
45323;BME280;31382;50.200;8.674;2023-02-13T12:29:51;102409.19;;;12.61;57.96
45323;BME280;31382;50.200;8.674;2023-02-13T12:35:29;102395.56;;;12.72;57.81
45323;BME280;31382;50.200;8.674;2023-02-13T12:46:09;102380.53;;;12.99;56.60
45323;BME280;31382;50.200;8.674;2023-02-13T12:51:28;102369.72;;;13.08;56.39
45323;BME280;31382;50.200;8.674;2023-02-13T12:56:37;102364.06;;;13.21;55.91
45323;BME280;31382;50.200;8.674;2023-02-13T13:12:39;102358.34;;;13.44;55.02
45323;BME280;31382;50.200;8.674;2023-02-13T13:17:47;102359.16;;;13.54;54.72
45323;BME280;31382;50.200;8.674;2023-02-13T13:22:57;102360.72;;;13.66;54.09
45323;BME280;31382;50.200;8.674;2023-02-13T13:28:10;102350.56;;;13.78;53.61
45323;BME280;31382;50.200;8.674;2023-02-13T13:33:21;102348.59;;;13.80;53.37
45323;BME280;31382;50.200;8.674;2023-02-13T13:49:50;102324.28;;;14.08;51.57
45323;BME280;31382;50.200;8.674;2023-02-13T13:54:56;102326.63;;;14.21;51.34
45323;BME280;31382;50.200;8.674;2023-02-13T14:00:27;102332.06;;;14.39;50.60
45323;BME280;31382;50.200;8.674;2023-02-13T14:05:31;102320.88;;;14.52;50.22
45323;BME280;31382;50.200;8.674;2023-02-13T14:36:26;102304.03;;;14.76;48.39
45323;BME280;31382;50.200;8.674;2023-02-13T14:46:45;102295.38;;;14.72;47.89
45323;BME280;31382;50.200;8.674;2023-02-13T14:51:54;102288.44;;;14.70;47.56
45323;BME280;31382;50.200;8.674;2023-02-13T14:57:26;102288.03;;;14.82;47.29
45323;BME280;31382;50.200;8.674;2023-02-13T15:02:36;102280.66;;;14.75;47.61
45323;BME280;31382;50.200;8.674;2023-02-13T15:07:46;102274.81;;;14.79;47.49
45323;BME280;31382;50.200;8.674;2023-02-13T15:12:58;102281.63;;;14.83;47.64
45323;BME280;31382;50.200;8.674;2023-02-13T15:18:03;102278.81;;;14.93;48.03
45323;BME280;31382;50.200;8.674;2023-02-13T15:23:19;102270.41;;;15.57;46.97
45323;BME280;31382;50.200;8.674;2023-02-13T15:28:22;102269.84;;;15.45;47.77
45323;BME280;31382;50.200;8.674;2023-02-13T15:33:27;102273.66;;;15.34;47.80
45323;BME280;31382;50.200;8.674;2023-02-13T15:38:32;102277.34;;;15.25;47.82
45323;BME280;31382;50.200;8.674;2023-02-13T15:43:39;102259.34;;;15.16;47.83
45323;BME280;31382;50.200;8.674;2023-02-13T15:48:44;102272.66;;;15.09;48.02
45323;BME280;31382;50.200;8.674;2023-02-13T15:53:50;102264.25;;;14.94;48.04
45323;BME280;31382;50.200;8.674;2023-02-13T15:58:53;102270.38;;;14.78;48.31
45323;BME280;31382;50.200;8.674;2023-02-13T16:04:01;102268.53;;;14.61;48.95
45323;BME280;31382;50.200;8.674;2023-02-13T16:09:04;102277.47;;;14.43;49.06
45323;BME280;31382;50.200;8.674;2023-02-13T16:14:16;102270.91;;;14.28;49.06
45323;BME280;31382;50.200;8.674;2023-02-13T16:24:25;102273.97;;;13.87;49.49
45323;BME280;31382;50.200;8.674;2023-02-13T16:29:27;102284.59;;;13.71;50.00
45323;BME280;31382;50.200;8.674;2023-02-13T16:34:29;102283.50;;;13.54;49.98
45323;BME280;31382;50.200;8.674;2023-02-13T16:39:31;102294.38;;;13.35;50.49
45323;BME280;31382;50.200;8.674;2023-02-13T16:44:33;102297.13;;;13.15;50.78
45323;BME280;31382;50.200;8.674;2023-02-13T16:49:35;102302.69;;;12.94;50.91
45323;BME280;31382;50.200;8.674;2023-02-13T16:54:46;102298.25;;;12.74;51.27
45323;BME280;31382;50.200;8.674;2023-02-13T16:59:53;102304.94;;;12.60;51.28
45323;BME280;31382;50.200;8.674;2023-02-13T17:10:05;102319.66;;;12.17;52.08
45323;BME280;31382;50.200;8.674;2023-02-13T17:15:13;102323.53;;;11.93;52.62
45323;BME280;31382;50.200;8.674;2023-02-13T17:20:18;102334.19;;;11.74;53.05
45323;BME280;31382;50.200;8.674;2023-02-13T17:25:26;102331.28;;;11.56;53.09
45323;BME280;31382;50.200;8.674;2023-02-13T17:30:30;102332.13;;;11.35;53.53
45323;BME280;31382;50.200;8.674;2023-02-13T17:35:32;102331.03;;;11.17;53.81
45323;BME280;31382;50.200;8.674;2023-02-13T17:40:35;102335.53;;;10.95;54.74
45323;BME280;31382;50.200;8.674;2023-02-13T17:45:37;102339.78;;;10.77;55.27
45323;BME280;31382;50.200;8.674;2023-02-13T17:50:39;102343.97;;;10.58;55.47
45323;BME280;31382;50.200;8.674;2023-02-13T17:55:40;102346.34;;;10.40;56.07
45323;BME280;31382;50.200;8.674;2023-02-13T18:00:41;102346.84;;;10.23;56.37
45323;BME280;31382;50.200;8.674;2023-02-13T18:05:46;102356.38;;;10.04;56.83
45323;BME280;31382;50.200;8.674;2023-02-13T18:10:48;102356.88;;;9.87;57.16
45323;BME280;31382;50.200;8.674;2023-02-13T18:15:50;102357.13;;;9.72;57.69
45323;BME280;31382;50.200;8.674;2023-02-13T18:20:55;102360.16;;;9.57;57.97
45323;BME280;31382;50.200;8.674;2023-02-13T18:26:08;102358.31;;;9.46;58.49
45323;BME280;31382;50.200;8.674;2023-02-13T18:31:10;102358.75;;;9.28;58.27
45323;BME280;31382;50.200;8.674;2023-02-13T18:36:12;102361.50;;;9.16;58.79
45323;BME280;31382;50.200;8.674;2023-02-13T18:41:13;102357.09;;;9.03;59.07
45323;BME280;31382;50.200;8.674;2023-02-13T18:46:15;102355.44;;;8.89;59.10
45323;BME280;31382;50.200;8.674;2023-02-13T18:51:16;102359.78;;;8.79;59.30
45323;BME280;31382;50.200;8.674;2023-02-13T18:56:17;102363.41;;;8.67;59.14
45323;BME280;31382;50.200;8.674;2023-02-13T19:01:20;102360.97;;;8.51;59.33
45323;BME280;31382;50.200;8.674;2023-02-13T19:06:24;102357.78;;;8.33;60.04
45323;BME280;31382;50.200;8.674;2023-02-13T19:11:26;102359.84;;;8.17;60.82
45323;BME280;31382;50.200;8.674;2023-02-13T19:16:29;102360.19;;;8.12;59.95
45323;BME280;31382;50.200;8.674;2023-02-13T19:21:33;102366.00;;;7.93;61.10
45323;BME280;31382;50.200;8.674;2023-02-13T19:26:35;102364.63;;;7.74;61.16
45323;BME280;31382;50.200;8.674;2023-02-13T19:31:36;102359.72;;;7.68;61.05
45323;BME280;31382;50.200;8.674;2023-02-13T19:36:38;102369.13;;;7.61;61.27
45323;BME280;31382;50.200;8.674;2023-02-13T19:41:39;102370.94;;;7.35;61.47
45323;BME280;31382;50.200;8.674;2023-02-13T19:46:41;102374.31;;;7.24;61.94
45323;BME280;31382;50.200;8.674;2023-02-13T19:51:43;102368.53;;;7.18;62.35
45323;BME280;31382;50.200;8.674;2023-02-13T19:56:46;102374.97;;;7.15;61.98
45323;BME280;31382;50.200;8.674;2023-02-13T20:01:48;102361.09;;;6.95;62.67
45323;BME280;31382;50.200;8.674;2023-02-13T20:06:49;102362.97;;;6.81;62.70
45323;BME280;31382;50.200;8.674;2023-02-13T20:11:51;102373.28;;;6.60;62.88
45323;BME280;31382;50.200;8.674;2023-02-13T20:16:52;102374.06;;;6.47;63.40
45323;BME280;31382;50.200;8.674;2023-02-13T20:21:53;102374.00;;;6.34;64.23
45323;BME280;31382;50.200;8.674;2023-02-13T20:26:55;102374.53;;;6.40;64.19
45323;BME280;31382;50.200;8.674;2023-02-13T20:31:59;102371.78;;;6.41;63.92
45323;BME280;31382;50.200;8.674;2023-02-13T20:37:00;102372.25;;;6.33;63.90
45323;BME280;31382;50.200;8.674;2023-02-13T20:42:02;102381.03;;;6.35;64.21
45323;BME280;31382;50.200;8.674;2023-02-13T20:47:03;102381.06;;;6.21;64.41
45323;BME280;31382;50.200;8.674;2023-02-13T20:52:05;102380.69;;;6.13;63.75
45323;BME280;31382;50.200;8.674;2023-02-13T20:57:06;102383.84;;;6.05;64.27
45323;BME280;31382;50.200;8.674;2023-02-13T21:02:08;102384.59;;;6.07;64.71
45323;BME280;31382;50.200;8.674;2023-02-13T21:07:10;102376.75;;;5.90;64.42
45323;BME280;31382;50.200;8.674;2023-02-13T21:12:11;102376.47;;;5.80;65.14
45323;BME280;31382;50.200;8.674;2023-02-13T21:17:13;102373.81;;;5.80;64.55
45323;BME280;31382;50.200;8.674;2023-02-13T21:22:14;102369.97;;;5.84;64.13
45323;BME280;31382;50.200;8.674;2023-02-13T21:27:16;102374.69;;;5.81;64.66
45323;BME280;31382;50.200;8.674;2023-02-13T21:32:17;102366.09;;;5.75;65.30
45323;BME280;31382;50.200;8.674;2023-02-13T21:37:18;102369.06;;;5.71;64.75
45323;BME280;31382;50.200;8.674;2023-02-13T21:42:20;102370.97;;;5.69;64.39
45323;BME280;31382;50.200;8.674;2023-02-13T21:47:21;102370.44;;;5.62;65.04
45323;BME280;31382;50.200;8.674;2023-02-13T21:52:23;102363.13;;;5.51;65.37
45323;BME280;31382;50.200;8.674;2023-02-13T21:57:24;102349.94;;;5.48;65.49
45323;BME280;31382;50.200;8.674;2023-02-13T22:02:26;102350.03;;;5.47;64.78
45323;BME280;31382;50.200;8.674;2023-02-13T22:07:29;102350.63;;;5.38;64.93
45323;BME280;31382;50.200;8.674;2023-02-13T22:12:30;102350.03;;;5.32;65.23
45323;BME280;31382;50.200;8.674;2023-02-13T22:17:33;102345.22;;;5.23;65.46
45323;BME280;31382;50.200;8.674;2023-02-13T22:22:36;102351.97;;;5.14;65.56
45323;BME280;31382;50.200;8.674;2023-02-13T22:27:38;102350.38;;;5.12;65.28
45323;BME280;31382;50.200;8.674;2023-02-13T22:32:40;102353.84;;;4.98;65.90
45323;BME280;31382;50.200;8.674;2023-02-13T22:37:41;102349.44;;;4.97;65.86
45323;BME280;31382;50.200;8.674;2023-02-13T22:42:43;102347.34;;;4.88;65.96
45323;BME280;31382;50.200;8.674;2023-02-13T22:47:44;102343.13;;;4.84;65.79
45323;BME280;31382;50.200;8.674;2023-02-13T22:52:46;102340.81;;;4.77;65.69
45323;BME280;31382;50.200;8.674;2023-02-13T22:57:48;102339.97;;;4.77;65.88
45323;BME280;31382;50.200;8.674;2023-02-13T23:02:54;102344.78;;;4.70;66.07
45323;BME280;31382;50.200;8.674;2023-02-13T23:07:55;102351.34;;;4.65;65.81
45323;BME280;31382;50.200;8.674;2023-02-13T23:12:56;102354.44;;;4.57;66.11
45323;BME280;31382;50.200;8.674;2023-02-13T23:17:58;102346.88;;;4.33;66.60
45323;BME280;31382;50.200;8.674;2023-02-13T23:23:14;102350.47;;;4.32;66.74
45323;BME280;31382;50.200;8.674;2023-02-13T23:28:16;102350.47;;;4.32;66.89
45323;BME280;31382;50.200;8.674;2023-02-13T23:33:17;102349.53;;;4.33;66.24
45323;BME280;31382;50.200;8.674;2023-02-13T23:38:19;102342.41;;;4.34;66.71
45323;BME280;31382;50.200;8.674;2023-02-13T23:43:21;102348.63;;;4.34;66.49
45323;BME280;31382;50.200;8.674;2023-02-13T23:48:22;102354.94;;;4.32;66.22
45323;BME280;31382;50.200;8.674;2023-02-13T23:53:23;102346.19;;;4.30;66.43
45323;BME280;31382;50.200;8.674;2023-02-13T23:58:25;102354.34;;;4.27;66.36
